Terminal Aerodrome Forecast
Issued by NWS Sioux Falls, SD

Home | Current Version | Previous Version | Text Only | Print | Product List | Glossary On
Versions: 1 2 3 4 5 6 7 8 9 10 11 12 13 14 15 16 17 18 19 20 21 22 23 24 25 26 27
000
FTUS43 KFSD 171132
TAFSUX
TAF
KSUX 171132Z 1712/1812 34004KT P6SM SKC
     FM171500 05006KT P6SM SCT120
     FM172100 10005KT P6SM SCT100
     FM180100 11006KT P6SM BKN100
     FM180800 13007KT P6SM BKN100 OVC250=

USA.gov is the U.S. government's official web portal to all federal, state and local government web resources and services.